• Join FlightAware (Why Join?)
  • Login
  • US Flag 
10:38AM EST


 

Airport Tracker/Info


-or-


 

Live Flight TrackerFlight Track Log ✈ QFA1100 ✈ 29-Oct-2013 ✈ YPPH / PER - YNWN / ZNE

Flight Track Log - Related Links

Times and Time Zones

All times are in EDT time to prevent confusion due to time zone crossing. See the QFA1100 flight status page for this flight to view local times or setup timezone preferences in your user account.

Time Position Orientation Groundspeed Altitude Reporting Facility
EDT Latitude Longitude Course Direction KTS MPH feet Rate Location/Type
01:37AM -31.9326 115.9673 140° Southeast 74 85  Level FlightAware ADS-B
01:37AM -31.9439 115.9640 194° South 150 173 1,320 Level FlightAware ADS-B
01:38AM -31.9757 115.9546 194° South 159 183 1,500 1,740 Climbing Aus ATC (RADAR)
01:38AM -31.9866 115.9516 194° South 186 214 1,700 1,320 Climbing FlightAware ADS-B
01:38AM -31.9986 115.9508 183° South 191 220 2,100 1,980 Climbing FlightAware ADS-B
01:38AM -32.0171 115.9555 168° South 210 242 2,800 2,340 Climbing FlightAware ADS-B
01:39AM -32.0251 115.9603 153° Southeast 222 255 3,200 1,860 Climbing FlightAware ADS-B
01:39AM -32.0348 115.9717 135° Southeast 238 274 3,500 2,220 Climbing FlightAware ADS-B
01:39AM -32.0396 115.9864 111° Southeast 247 284 4,100 3,180 Climbing FlightAware ADS-B
01:39AM -32.0457 116.0139 105° East 264 304 5,200 3,120 Climbing FlightAware ADS-B
01:40AM -32.0556 116.0552 106° East 271 312 6,800 3,360 Climbing FlightAware ADS-B
01:40AM -32.0627 116.0852 106° East 277 319 8,000 3,240 Climbing FlightAware ADS-B
01:41AM -32.0701 116.1175 105° East 290 334 9,100 3,000 Climbing FlightAware ADS-B
01:41AM -32.0812 116.1651 105° East 313 360 10,600 2,100 Climbing FlightAware ADS-B
01:41AM -32.0835 116.2026 94° East 346 398 10,900 960 Climbing FlightAware ADS-B
01:42AM -32.0794 116.2202 74° East 357 411 11,100 2,100 Climbing FlightAware ADS-B
01:42AM -32.0705 116.2383 60° Northeast 363 418 11,600 3,240 Climbing FlightAware ADS-B
01:42AM -32.0253 116.2952 47° Northeast 363 418 13,800 3,120 Climbing FlightAware ADS-B
01:43AM -31.9851 116.3413 44° Northeast 372 428 15,400 2,820 Climbing FlightAware ADS-B
01:43AM -31.9382 116.3717 29° Northeast 389 448 16,800 2,700 Climbing FlightAware ADS-B
01:44AM -31.8721 116.4080 29° Northeast 395 455 18,600 2,700 Climbing Aus ATC (RADAR)
01:44AM -31.8718 116.4080 29° Northeast 394 453 18,600 2,580 Level FlightAware ADS-B
01:45AM -31.8038 116.4454 25° Northeast 411 473 20,300 2,340 Climbing FlightAware ADS-B
01:45AM -31.7345 116.4834 25° Northeast 427 491 21,700 1,980 Climbing FlightAware ADS-B
01:46AM -31.6782 116.5142 25° Northeast 432 497 22,700 2,100 Climbing FlightAware ADS-B
01:46AM -31.6192 116.5465 25° Northeast 448 516 23,900 2,100 Climbing FlightAware ADS-B
01:47AM -31.5617 116.5778 25° Northeast 448 516 24,900 1,800 Climbing FlightAware ADS-B
01:48AM -31.4840 116.6201 25° Northeast 459 528 26,100 1,800 Climbing FlightAware ADS-B
01:48AM -31.4250 116.6522 25° Northeast 465 535 27,000 1,680 Climbing FlightAware ADS-B
01:49AM -31.3452 116.6956 25° Northeast 480 552 28,100 1,680 Climbing FlightAware ADS-B
01:50AM -31.2482 116.7481 25° Northeast 484 557 29,500 1,500 Climbing Aus ATC (RADAR)
01:50AM -31.2105 116.7686 25° Northeast 485 558 29,800 1,200 Climbing FlightAware ADS-B
01:50AM -31.1469 116.8030 25° Northeast 497 572 30,500 1,440 Climbing FlightAware ADS-B
01:51AM -31.0847 116.8364 25° Northeast 499 574 31,300 1,680 Climbing FlightAware ADS-B
01:51AM -31.0219 116.8702 25° Northeast 498 573 32,200 1,680 Climbing FlightAware ADS-B
01:52AM -30.9592 116.9038 25° Northeast 496 571 33,000 1,800 Climbing FlightAware ADS-B
01:52AM -30.8965 116.9375 25° Northeast 483 556 34,000 1,800 Climbing FlightAware ADS-B
01:53AM -30.8353 116.9704 25° Northeast 482 555 34,800 1,440 Climbing FlightAware ADS-B
01:53AM -30.7712 117.0051 25° Northeast 488 562 35,500 1,260 Climbing Aus ATC (RADAR)
01:54AM -30.7510 117.0162 25° Northeast 483 556 35,700 1,020 Climbing FlightAware ADS-B
01:54AM -30.6883 117.0500 25° Northeast 485 558 36,200 1,200 Climbing FlightAware ADS-B
01:55AM -30.6255 117.0836 25° Northeast 483 556 36,900 1,380 Climbing FlightAware ADS-B
01:55AM -30.5656 117.1155 25° Northeast 476 548 37,600 1,380 Climbing FlightAware ADS-B
01:56AM -30.5033 117.1487 25° Northeast 480 552 38,300 1,080 Climbing FlightAware ADS-B
01:56AM -30.4429 117.1806 24° Northeast 480 552 38,700 540 Climbing FlightAware ADS-B
01:57AM -30.3591 117.2251 25° Northeast 482 555 39,000 180 Climbing FlightAware ADS-B
01:57AM -30.2790 117.2674 24° Northeast 482 555 39,000  Level FlightAware ADS-B
01:58AM -30.2178 117.2998 25° Northeast 481 554 39,000  Level FlightAware ADS-B
01:59AM -30.1375 117.3423 25° Northeast 480 552 39,000  Level FlightAware ADS-B
01:59AM -30.0549 117.3859 25° Northeast 480 552 39,000 60 Level FlightAware ADS-B
02:00AM -29.9504 117.4406 25° Northeast 479 551 39,100  Climbing Aus ATC (RADAR)
02:00AM -29.9314 117.4509 25° Northeast 477 549 39,000 -180 Descending FlightAware ADS-B
02:01AM -29.8714 117.4825 24° Northeast 477 549 39,000  Level FlightAware ADS-B
02:01AM -29.8114 117.5140 25° Northeast 476 548 39,000  Level FlightAware ADS-B
02:02AM -29.7510 117.5455 24° Northeast 476 548 39,000  Level FlightAware ADS-B
02:02AM -29.6908 117.5768 24° Northeast 476 548 39,000  Level FlightAware ADS-B
02:03AM -29.6307 117.6083 24° Northeast 475 547 39,000  Level FlightAware ADS-B
02:03AM -29.5665 117.6418 24° Northeast 476 548 39,000  Level FlightAware ADS-B
02:04AM -29.5063 117.6730 24° Northeast 475 547 39,000  Level FlightAware ADS-B
02:04AM -29.4457 117.7047 25° Northeast 475 547 39,000  Level FlightAware ADS-B
02:05AM -29.3670 117.7457 24° Northeast 474 545 39,000  Level FlightAware ADS-B
02:05AM -29.3044 117.7780 24° Northeast 474 545 39,000  Level FlightAware ADS-B
02:06AM -29.2437 117.8094 24° Northeast 475 547 39,000  Level FlightAware ADS-B
02:07AM -29.1633 117.8511 24° Northeast 477 549 39,000  Level FlightAware ADS-B
02:07AM -29.1015 117.8830 24° Northeast 477 549 39,000  Level FlightAware ADS-B
02:08AM -29.0414 117.9142 24° Northeast 477 549 39,000  Level FlightAware ADS-B
02:08AM -28.9616 117.9554 24° Northeast 478 550 39,000  Level FlightAware ADS-B
02:09AM -28.9005 117.9867 24° Northeast 478 550 39,000 60 Level FlightAware ADS-B
02:09AM -28.8362 118.0143 24° Northeast 479 551 39,100  Climbing Aus ATC (RADAR)
02:09AM -28.8219 118.0269 24° Northeast 478 550 39,000  Descending FlightAware ADS-B
02:10AM -28.7355 118.0660 24° Northeast 479 551 39,100  Climbing Aus ATC (RADAR)
02:10AM -28.8480 118.0070 24° Northeast 475 547 39,000 -120 Descending FlightAware
02:12AM -28.7420 118.0610 24° Northeast 475 547 39,000 60 Level FlightAware
02:12AM -28.5643 118.1529 24° Northeast 477 549 39,100  Climbing Aus ATC (RADAR)
02:12AM -28.7010 118.0820 24° Northeast 475 547 39,000  Descending FlightAware
02:12AM -28.5134 118.1775 24° Northeast 478 550 39,100  Climbing Aus ATC (RADAR)
02:12AM -28.6610 118.1030 24° Northeast 475 547 39,000  Descending FlightAware
02:13AM -28.4405 118.2102 24° Northeast 477 549 39,100  Climbing Aus ATC (RADAR)
02:13AM -28.6200 118.1240 24° Northeast 475 547 39,000  Descending FlightAware
02:14AM -28.3106 118.2772 24° Northeast 475 547 39,100 60 Climbing Aus ATC (RADAR)
02:14AM -28.2602 118.3030 24° Northeast 478 550 39,100  Level Aus ATC (RADAR)
02:15AM -28.1914 118.3410 26° Northeast 477 549 39,100  Level Aus ATC (RADAR)
02:15AM -28.1716 118.3514 25° Northeast 477 549 39,100 -60 Level Aus ATC (RADAR)
02:18AM -27.8192 118.5099 21° North 39,000 -60 Descending Aus ATC (Calculated)
02:20AM -27.6257 118.5689 15° North  Level Estimated
02:21AM -27.5085 118.6046 15° North  Level Estimated
02:22AM -27.3912 118.6401 15° North  Level Estimated
02:22AM -27.3564 118.7164 20° North 39,000  Level Aus ATC (Calculated)
02:23AM -27.2387 118.7500 14° North  Level Estimated
02:24AM -27.1224 118.7831 14° North  Level Estimated
02:26AM -26.8869 118.8499 14° North  Level Estimated
02:26AM -26.8757 118.9167 14° North 395 455 39,000  Level Aus ATC (RADAR)
02:30AM -26.3138 119.1681 22° Northeast 464 534 39,100  Climbing Aus ATC (RADAR)
02:31AM -26.1799 119.2303 23° Northeast 474 545 39,100  Level Aus ATC (RADAR)
02:31AM -26.1609 119.2363 16° North 471 542 39,100  Level Aus ATC (RADAR)
02:33AM -26.0064 119.3050 22° Northeast 581 669 39,100  Level Aus ATC (RADAR)
02:33AM -25.9384 119.3299 18° North 483 556 39,100  Level Aus ATC (RADAR)
02:35AM -25.7170 119.4214 20° North 462 532 39,100 -60 Level Aus ATC (RADAR)
02:35AM -25.6870 119.4337 20° North 460 529 39,000  Descending Aus ATC (RADAR)
02:36AM -25.6166 119.4626 20° North 461 531 39,100  Climbing Aus ATC (RADAR)
02:37AM -25.4955 119.5134 21° North 465 535 39,000  Descending Aus ATC (RADAR)
02:37AM -25.4355 119.5377 20° North 461 531 39,100 60 Climbing Aus ATC (RADAR)
02:38AM -25.3128 119.5895 21° North 467 537 39,100 -1,620 Level Aus ATC (RADAR)
02:40AM -25.1019 119.6758 20° North 463 533 34,800 -2,640 Descending Aus ATC (RADAR)
02:41AM -24.9484 119.7386 20° North 467 537 31,300 -2,220 Descending Aus ATC (RADAR)
02:42AM -24.8736 119.7549 11° North 475 547 30,800 -1,980 Descending Aus ATC (RADAR)
02:43AM -24.7008 119.7582 North 431 496 27,400 -2,220 Descending Aus ATC (RADAR)
02:46AM -24.4401 119.7666 North 394 453 22,700 -2,160 Descending Aus ATC (RADAR)
02:46AM -24.3959 119.7675 North 384 442 21,700 -2,520 Descending Aus ATC (RADAR)
02:47AM -24.2403 119.7675 360° North 384 442 18,100 -2,700 Descending Aus ATC (RADAR)
02:48AM -24.1902 119.7732 North 364 419 16,600 -2,460 Descending Aus ATC (RADAR)
02:49AM -24.1036 119.7788 North 368 423 14,900 -2,100 Descending Aus ATC (RADAR)
02:49AM -24.0954 119.7789 North 366 421 14,700 -2,400 Descending Aus ATC (RADAR)
02:52AM -23.8426 119.7880 North 1,900 -3,900 Descending Aus ATC (Calculated)
02:54AM -23.6747 119.7940 North  Level FlightAware Approximate
02:55AM -23.5533 119.7983 North  Level FlightAware Approximate
02:55AM -23.5791 119.7974 360° North 1,900  Level Aus ATC (Calculated)
02:55AM -23.5791 119.7974 North 1,900  Level Aus ATC (Calculated)
02:56AM -23.4319 119.8027 North  Level FlightAware Approximate
02:57AM -23.4112 119.8034 North  Level FlightAware Approximate
02:58AM -23.4178 119.8027 355° North  Level FlightAware Approximate
02:59AM -23.4178 119.8028 355° North  Level Estimated
03:00AM -23.4178 119.8028 355° North  Level Estimated
03:01AM -23.4178 119.8028 355° North  Level Estimated